sensor_id;sensor_type;location;lat;lon;timestamp;pressure;altitude;pressure_sealevel;temperature;humidity
61618;BME280;47518;51.776;9.370;2023-06-04T00:00:44;100774.88;;;10.79;56.80
61618;BME280;47518;51.776;9.370;2023-06-04T00:03:09;100764.97;;;10.54;56.18
61618;BME280;47518;51.776;9.370;2023-06-04T00:05:35;100776.16;;;10.59;56.64
61618;BME280;47518;51.776;9.370;2023-06-04T00:08:00;100764.97;;;10.54;57.56
61618;BME280;47518;51.776;9.370;2023-06-04T00:10:25;100767.16;;;10.59;57.30
61618;BME280;47518;51.776;9.370;2023-06-04T00:12:54;100766.16;;;10.60;56.64
61618;BME280;47518;51.776;9.370;2023-06-04T00:15:23;100765.25;;;10.51;56.81
61618;BME280;47518;51.776;9.370;2023-06-04T00:17:48;100767.84;;;10.61;57.11
61618;BME280;47518;51.776;9.370;2023-06-04T00:20:13;100770.66;;;10.35;56.96
61618;BME280;47518;51.776;9.370;2023-06-04T00:22:39;100761.69;;;10.42;57.89
61618;BME280;47518;51.776;9.370;2023-06-04T00:25:07;100759.47;;;10.46;56.52
61618;BME280;47518;51.776;9.370;2023-06-04T00:27:36;100769.00;;;10.16;58.40
61618;BME280;47518;51.776;9.370;2023-06-04T00:30:02;100767.81;;;10.10;58.83
61618;BME280;47518;51.776;9.370;2023-06-04T00:32:31;100772.16;;;10.03;58.40
61618;BME280;47518;51.776;9.370;2023-06-04T00:34:56;100766.91;;;10.02;58.88
61618;BME280;47518;51.776;9.370;2023-06-04T00:37:23;100763.84;;;10.05;58.72
61618;BME280;47518;51.776;9.370;2023-06-04T00:39:49;100766.63;;;10.13;57.14
61618;BME280;47518;51.776;9.370;2023-06-04T00:42:15;100766.28;;;10.08;58.02
61618;BME280;47518;51.776;9.370;2023-06-04T00:44:41;100767.63;;;10.12;57.46
61618;BME280;47518;51.776;9.370;2023-06-04T00:47:11;100768.94;;;10.00;57.74
61618;BME280;47518;51.776;9.370;2023-06-04T00:49:38;100766.00;;;9.93;58.20
61618;BME280;47518;51.776;9.370;2023-06-04T00:52:03;100761.81;;;9.99;58.00
61618;BME280;47518;51.776;9.370;2023-06-04T00:54:32;100760.91;;;9.90;57.79
61618;BME280;47518;51.776;9.370;2023-06-04T00:56:59;100760.53;;;9.85;59.20
61618;BME280;47518;51.776;9.370;2023-06-04T00:59:24;100758.72;;;9.68;60.42
61618;BME280;47518;51.776;9.370;2023-06-04T01:01:56;100761.78;;;9.64;59.96
61618;BME280;47518;51.776;9.370;2023-06-04T01:05:14;100755.50;;;9.64;59.08
61618;BME280;47518;51.776;9.370;2023-06-04T01:07:41;100765.22;;;9.75;59.75
61618;BME280;47518;51.776;9.370;2023-06-04T01:10:12;100760.81;;;9.74;59.64
61618;BME280;47518;51.776;9.370;2023-06-04T01:12:40;100757.53;;;9.62;59.67
61618;BME280;47518;51.776;9.370;2023-06-04T01:15:06;100759.81;;;9.75;59.49
61618;BME280;47518;51.776;9.370;2023-06-04T01:17:39;100760.66;;;9.75;58.96
61618;BME280;47518;51.776;9.370;2023-06-04T01:20:18;100756.66;;;9.61;59.97
61618;BME280;47518;51.776;9.370;2023-06-04T01:25:44;100771.81;;;9.46;59.39
61618;BME280;47518;51.776;9.370;2023-06-04T01:28:12;100763.66;;;9.46;59.81
61618;BME280;47518;51.776;9.370;2023-06-04T01:30:43;100762.03;;;9.53;59.90
61618;BME280;47518;51.776;9.370;2023-06-04T01:33:12;100757.72;;;9.25;60.87
61618;BME280;47518;51.776;9.370;2023-06-04T01:35:38;100762.31;;;9.24;61.31
61618;BME280;47518;51.776;9.370;2023-06-04T01:38:04;100762.69;;;9.29;61.29
61618;BME280;47518;51.776;9.370;2023-06-04T01:40:30;100757.72;;;9.25;61.69
61618;BME280;47518;51.776;9.370;2023-06-04T01:42:55;100758.44;;;9.09;61.44
61618;BME280;47518;51.776;9.370;2023-06-04T01:45:22;100757.94;;;9.05;62.11
61618;BME280;47518;51.776;9.370;2023-06-04T01:47:48;100758.00;;;8.96;61.56
61618;BME280;47518;51.776;9.370;2023-06-04T01:50:13;100764.66;;;8.84;61.84
61618;BME280;47518;51.776;9.370;2023-06-04T01:52:40;100763.88;;;9.09;61.24
61618;BME280;47518;51.776;9.370;2023-06-04T01:55:07;100761.78;;;9.21;60.21
61618;BME280;47518;51.776;9.370;2023-06-04T01:57:34;100767.75;;;9.06;61.63
61618;BME280;47518;51.776;9.370;2023-06-04T02:00:06;100772.94;;;9.00;61.48
61618;BME280;47518;51.776;9.370;2023-06-04T02:02:36;100769.69;;;8.78;62.03
61618;BME280;47518;51.776;9.370;2023-06-04T02:05:03;100762.25;;;8.63;63.42
61618;BME280;47518;51.776;9.370;2023-06-04T02:07:28;100761.75;;;8.67;63.51
61618;BME280;47518;51.776;9.370;2023-06-04T02:09:54;100760.53;;;8.62;63.24
61618;BME280;47518;51.776;9.370;2023-06-04T02:12:22;100764.81;;;8.82;63.27
61618;BME280;47518;51.776;9.370;2023-06-04T02:14:48;100763.19;;;8.71;62.92
61618;BME280;47518;51.776;9.370;2023-06-04T02:17:13;100763.41;;;8.78;62.94
61618;BME280;47518;51.776;9.370;2023-06-04T02:19:40;100763.56;;;8.59;63.05
61618;BME280;47518;51.776;9.370;2023-06-04T02:22:10;100765.81;;;8.63;63.16
61618;BME280;47518;51.776;9.370;2023-06-04T02:24:36;100763.25;;;8.62;64.15
61618;BME280;47518;51.776;9.370;2023-06-04T02:27:05;100773.19;;;8.43;65.04
61618;BME280;47518;51.776;9.370;2023-06-04T02:29:34;100771.97;;;8.38;64.99
61618;BME280;47518;51.776;9.370;2023-06-04T02:32:01;100770.94;;;8.39;65.87
61618;BME280;47518;51.776;9.370;2023-06-04T02:34:29;100771.31;;;8.16;65.29
61618;BME280;47518;51.776;9.370;2023-06-04T02:37:02;100769.72;;;8.24;65.27
61618;BME280;47518;51.776;9.370;2023-06-04T02:39:28;100764.00;;;8.27;65.53
61618;BME280;47518;51.776;9.370;2023-06-04T02:41:56;100767.81;;;8.34;64.22
61618;BME280;47518;51.776;9.370;2023-06-04T02:44:24;100767.09;;;8.32;64.45
61618;BME280;47518;51.776;9.370;2023-06-04T02:46:49;100760.25;;;8.37;64.36
61618;BME280;47518;51.776;9.370;2023-06-04T02:49:15;100753.53;;;8.41;64.09
61618;BME280;47518;51.776;9.370;2023-06-04T02:51:43;100763.78;;;8.47;64.49
61618;BME280;47518;51.776;9.370;2023-06-04T02:54:09;100771.97;;;8.56;64.41
61618;BME280;47518;51.776;9.370;2023-06-04T02:56:36;100771.22;;;8.63;64.51
61618;BME280;47518;51.776;9.370;2023-06-04T02:59:02;100770.44;;;8.53;63.82
61618;BME280;47518;51.776;9.370;2023-06-04T03:01:27;100767.81;;;8.34;64.55
61618;BME280;47518;51.776;9.370;2023-06-04T03:03:53;100764.53;;;8.30;64.20
61618;BME280;47518;51.776;9.370;2023-06-04T03:06:23;100764.53;;;8.40;63.87
61618;BME280;47518;51.776;9.370;2023-06-04T03:08:52;100770.28;;;8.27;64.98
61618;BME280;47518;51.776;9.370;2023-06-04T03:11:20;100772.28;;;8.53;63.82
61618;BME280;47518;51.776;9.370;2023-06-04T03:13:47;100766.16;;;8.51;64.21
61618;BME280;47518;51.776;9.370;2023-06-04T03:16:13;100779.44;;;8.16;65.35
61618;BME280;47518;51.776;9.370;2023-06-04T03:18:40;100770.53;;;8.34;64.92
61618;BME280;47518;51.776;9.370;2023-06-04T03:21:05;100775.81;;;8.35;64.16
61618;BME280;47518;51.776;9.370;2023-06-04T03:23:32;100771.66;;;8.31;64.73
61618;BME280;47518;51.776;9.370;2023-06-04T03:26:00;100781.75;;;8.11;65.24
61618;BME280;47518;51.776;9.370;2023-06-04T03:28:25;100776.84;;;8.25;64.42
61618;BME280;47518;51.776;9.370;2023-06-04T03:30:50;100776.84;;;8.34;65.21
61618;BME280;47518;51.776;9.370;2023-06-04T03:33:16;100778.03;;;8.12;66.49
61618;BME280;47518;51.776;9.370;2023-06-04T03:35:41;100774.50;;;8.39;64.99
61618;BME280;47518;51.776;9.370;2023-06-04T03:38:07;100771.88;;;8.20;65.53
61618;BME280;47518;51.776;9.370;2023-06-04T03:40:32;100778.63;;;8.06;65.73
61618;BME280;47518;51.776;9.370;2023-06-04T03:42:57;100787.31;;;8.10;64.97
61618;BME280;47518;51.776;9.370;2023-06-04T03:45:23;100783.09;;;8.35;65.40
61618;BME280;47518;51.776;9.370;2023-06-04T03:47:48;100794.53;;;8.19;64.89
61618;BME280;47518;51.776;9.370;2023-06-04T03:50:13;100780.59;;;8.14;64.78
61618;BME280;47518;51.776;9.370;2023-06-04T03:52:41;100778.56;;;8.26;64.47
61618;BME280;47518;51.776;9.370;2023-06-04T03:55:06;100780.84;;;8.20;64.68
61618;BME280;47518;51.776;9.370;2023-06-04T03:57:32;100779.78;;;8.31;65.03
61618;BME280;47518;51.776;9.370;2023-06-04T03:59:57;100783.28;;;8.51;64.67
61618;BME280;47518;51.776;9.370;2023-06-04T04:02:23;100775.66;;;8.37;64.35
61618;BME280;47518;51.776;9.370;2023-06-04T04:04:48;100777.69;;;8.35;65.33
61618;BME280;47518;51.776;9.370;2023-06-04T04:07:15;100781.25;;;8.35;65.05
61618;BME280;47518;51.776;9.370;2023-06-04T04:09:40;100783.03;;;8.44;65.29
61618;BME280;47518;51.776;9.370;2023-06-04T04:12:06;100777.41;;;8.56;64.46
61618;BME280;47518;51.776;9.370;2023-06-04T04:14:32;100779.50;;;8.62;63.82
61618;BME280;47518;51.776;9.370;2023-06-04T04:16:57;100776.84;;;8.52;64.46
61618;BME280;47518;51.776;9.370;2023-06-04T04:19:22;100783.97;;;8.53;64.81
61618;BME280;47518;51.776;9.370;2023-06-04T04:21:48;100780.09;;;8.38;64.42
61618;BME280;47518;51.776;9.370;2023-06-04T04:24:28;100782.91;;;8.46;65.29
61618;BME280;47518;51.776;9.370;2023-06-04T04:26:54;100783.44;;;8.67;64.61
61618;BME280;47518;51.776;9.370;2023-06-04T04:29:23;100785.66;;;8.99;63.40
61618;BME280;47518;51.776;9.370;2023-06-04T04:31:50;100782.78;;;9.01;62.86
61618;BME280;47518;51.776;9.370;2023-06-04T04:34:16;100786.72;;;9.24;62.53
61618;BME280;47518;51.776;9.370;2023-06-04T04:36:42;100789.09;;;9.45;61.84
61618;BME280;47518;51.776;9.370;2023-06-04T04:39:07;100789.25;;;9.61;61.41
61618;BME280;47518;51.776;9.370;2023-06-04T04:41:33;100793.22;;;9.49;62.16
61618;BME280;47518;51.776;9.370;2023-06-04T04:44:05;100797.31;;;9.35;61.93
61618;BME280;47518;51.776;9.370;2023-06-04T04:46:31;100800.53;;;9.31;61.65
61618;BME280;47518;51.776;9.370;2023-06-04T04:48:56;100801.75;;;9.36;62.47
61618;BME280;47518;51.776;9.370;2023-06-04T04:51:22;100798.78;;;9.48;62.03
61618;BME280;47518;51.776;9.370;2023-06-04T04:53:47;100792.25;;;9.58;60.79
61618;BME280;47518;51.776;9.370;2023-06-04T04:56:12;100799.72;;;9.82;61.05
61618;BME280;47518;51.776;9.370;2023-06-04T04:58:38;100796.78;;;10.02;60.08
61618;BME280;47518;51.776;9.370;2023-06-04T05:01:03;100804.13;;;10.09;59.57
61618;BME280;47518;51.776;9.370;2023-06-04T05:03:29;100800.38;;;10.36;59.13
61618;BME280;47518;51.776;9.370;2023-06-04T05:05:54;100799.75;;;10.50;59.34
61618;BME280;47518;51.776;9.370;2023-06-04T05:08:20;100801.19;;;10.71;58.58
61618;BME280;47518;51.776;9.370;2023-06-04T05:10:45;100800.75;;;11.08;58.74
61618;BME280;47518;51.776;9.370;2023-06-04T05:13:11;100802.47;;;11.25;59.08
61618;BME280;47518;51.776;9.370;2023-06-04T05:15:36;100793.47;;;11.25;59.00
61618;BME280;47518;51.776;9.370;2023-06-04T05:18:02;100798.91;;;11.25;56.99
61618;BME280;47518;51.776;9.370;2023-06-04T05:20:29;100797.88;;;11.42;57.42
61618;BME280;47518;51.776;9.370;2023-06-04T05:22:54;100794.81;;;11.69;56.63
61618;BME280;47518;51.776;9.370;2023-06-04T05:25:20;100802.44;;;11.98;56.32
61618;BME280;47518;51.776;9.370;2023-06-04T05:27:46;100799.47;;;12.24;57.91
61618;BME280;47518;51.776;9.370;2023-06-04T05:30:14;100801.59;;;12.45;55.99
61618;BME280;47518;51.776;9.370;2023-06-04T05:32:39;100794.72;;;12.57;56.75
61618;BME280;47518;51.776;9.370;2023-06-04T05:35:08;100791.03;;;12.81;55.52
61618;BME280;47518;51.776;9.370;2023-06-04T05:37:35;100791.91;;;13.05;56.23
61618;BME280;47518;51.776;9.370;2023-06-04T05:40:03;100789.50;;;13.10;54.20
61618;BME280;47518;51.776;9.370;2023-06-04T05:42:30;100787.88;;;12.93;49.58
61618;BME280;47518;51.776;9.370;2023-06-04T05:44:58;100794.94;;;13.10;52.04
61618;BME280;47518;51.776;9.370;2023-06-04T05:47:23;100786.34;;;13.44;54.19
61618;BME280;47518;51.776;9.370;2023-06-04T05:49:49;100787.22;;;13.45;53.27
61618;BME280;47518;51.776;9.370;2023-06-04T05:52:14;100790.00;;;13.74;50.59
61618;BME280;47518;51.776;9.370;2023-06-04T05:54:39;100790.25;;;14.02;49.68
61618;BME280;47518;51.776;9.370;2023-06-04T05:57:05;100791.75;;;14.19;49.72
61618;BME280;47518;51.776;9.370;2023-06-04T05:59:31;100793.81;;;14.32;50.53
61618;BME280;47518;51.776;9.370;2023-06-04T06:01:57;100793.72;;;14.40;50.14
61618;BME280;47518;51.776;9.370;2023-06-04T06:04:22;100798.81;;;14.28;46.47
61618;BME280;47518;51.776;9.370;2023-06-04T06:06:51;100797.50;;;14.39;45.89
61618;BME280;47518;51.776;9.370;2023-06-04T06:09:16;100794.69;;;14.47;45.95
61618;BME280;47518;51.776;9.370;2023-06-04T06:24:48;100807.28;;;14.34;47.24
61618;BME280;47518;51.776;9.370;2023-06-04T06:27:15;100804.13;;;14.59;47.19
61618;BME280;47518;51.776;9.370;2023-06-04T06:29:43;100814.56;;;14.71;46.67
61618;BME280;47518;51.776;9.370;2023-06-04T06:32:10;100816.09;;;15.31;47.61
61618;BME280;47518;51.776;9.370;2023-06-04T06:34:38;100812.84;;;15.42;45.87
61618;BME280;47518;51.776;9.370;2023-06-04T06:37:04;100805.28;;;15.65;45.55
61618;BME280;47518;51.776;9.370;2023-06-04T06:39:29;100811.81;;;15.92;45.17
61618;BME280;47518;51.776;9.370;2023-06-04T06:41:58;100806.91;;;16.16;45.14
61618;BME280;47518;51.776;9.370;2023-06-04T06:44:25;100809.91;;;16.21;43.97
61618;BME280;47518;51.776;9.370;2023-06-04T06:46:54;100817.81;;;16.37;44.15
61618;BME280;47518;51.776;9.370;2023-06-04T06:49:19;100813.59;;;16.69;42.77
61618;BME280;47518;51.776;9.370;2023-06-04T06:51:45;100809.38;;;16.73;42.59
61618;BME280;47518;51.776;9.370;2023-06-04T06:54:10;100811.34;;;16.92;41.85
61618;BME280;47518;51.776;9.370;2023-06-04T06:56:35;100819.50;;;16.73;42.45
61618;BME280;47518;51.776;9.370;2023-06-04T06:59:01;100821.94;;;16.61;43.25
61618;BME280;47518;51.776;9.370;2023-06-04T07:01:26;100814.91;;;16.86;41.89
61618;BME280;47518;51.776;9.370;2023-06-04T07:03:52;100820.13;;;17.29;41.08
61618;BME280;47518;51.776;9.370;2023-06-04T07:06:17;100820.31;;;17.34;41.19
61618;BME280;47518;51.776;9.370;2023-06-04T07:08:43;100820.72;;;17.25;41.94
61618;BME280;47518;51.776;9.370;2023-06-04T07:11:08;100824.25;;;16.92;42.74
61618;BME280;47518;51.776;9.370;2023-06-04T07:13:38;100822.69;;;17.50;41.41
61618;BME280;47518;51.776;9.370;2023-06-04T07:16:03;100832.47;;;17.86;40.94
61618;BME280;47518;51.776;9.370;2023-06-04T07:18:28;100822.09;;;17.88;40.90
61618;BME280;47518;51.776;9.370;2023-06-04T07:20:54;100824.41;;;18.11;40.46
61618;BME280;47518;51.776;9.370;2023-06-04T07:23:19;100824.00;;;17.81;42.00
61618;BME280;47518;51.776;9.370;2023-06-04T07:25:44;100820.59;;;18.12;40.66
61618;BME280;47518;51.776;9.370;2023-06-04T07:28:11;100827.16;;;18.11;41.67
61618;BME280;47518;51.776;9.370;2023-06-04T07:30:37;100822.44;;;18.38;41.36
61618;BME280;47518;51.776;9.370;2023-06-04T07:33:02;100820.69;;;18.70;39.50
61618;BME280;47518;51.776;9.370;2023-06-04T07:35:28;100829.75;;;18.84;40.17
61618;BME280;47518;51.776;9.370;2023-06-04T07:37:53;100823.00;;;18.80;39.64
61618;BME280;47518;51.776;9.370;2023-06-04T07:40:18;100830.66;;;18.58;40.49
61618;BME280;47518;51.776;9.370;2023-06-04T07:42:47;100826.88;;;18.65;40.33
61618;BME280;47518;51.776;9.370;2023-06-04T07:45:15;100818.25;;;18.93;39.85
61618;BME280;47518;51.776;9.370;2023-06-04T07:47:41;100824.66;;;19.26;38.44
61618;BME280;47518;51.776;9.370;2023-06-04T07:50:07;100819.19;;;19.50;38.36
61618;BME280;47518;51.776;9.370;2023-06-04T07:52:33;100813.81;;;19.31;38.28
61618;BME280;47518;51.776;9.370;2023-06-04T07:55:02;100815.94;;;19.29;39.06
61618;BME280;47518;51.776;9.370;2023-06-04T07:57:28;100816.22;;;19.52;38.18
61618;BME280;47518;51.776;9.370;2023-06-04T07:59:54;100819.94;;;19.71;37.71
61618;BME280;47518;51.776;9.370;2023-06-04T08:02:19;100818.53;;;19.23;38.31
61618;BME280;47518;51.776;9.370;2023-06-04T08:04:50;100821.94;;;19.19;38.88
61618;BME280;47518;51.776;9.370;2023-06-04T08:07:19;100815.50;;;19.70;38.40
61618;BME280;47518;51.776;9.370;2023-06-04T08:09:44;100818.47;;;19.68;38.05
61618;BME280;47518;51.776;9.370;2023-06-04T08:12:10;100808.72;;;19.91;37.04
61618;BME280;47518;51.776;9.370;2023-06-04T08:14:35;100813.91;;;20.24;37.54
61618;BME280;47518;51.776;9.370;2023-06-04T08:17:01;100814.19;;;20.40;36.92
61618;BME280;47518;51.776;9.370;2023-06-04T08:19:26;100815.41;;;20.26;37.46
61618;BME280;47518;51.776;9.370;2023-06-04T08:21:51;100812.16;;;20.73;36.93
61618;BME280;47518;51.776;9.370;2023-06-04T08:24:17;100811.28;;;20.72;36.12
61618;BME280;47518;51.776;9.370;2023-06-04T08:26:42;100818.97;;;20.70;37.27
61618;BME280;47518;51.776;9.370;2023-06-04T08:29:07;100818.66;;;20.60;37.66
61618;BME280;47518;51.776;9.370;2023-06-04T08:31:33;100805.31;;;21.05;36.57
61618;BME280;47518;51.776;9.370;2023-06-04T08:33:58;100806.63;;;21.21;36.05
61618;BME280;47518;51.776;9.370;2023-06-04T08:36:24;100802.72;;;21.40;35.01
61618;BME280;47518;51.776;9.370;2023-06-04T08:38:49;100809.53;;;21.56;33.67
61618;BME280;47518;51.776;9.370;2023-06-04T08:41:24;100807.78;;;21.13;32.11
61618;BME280;47518;51.776;9.370;2023-06-04T08:43:55;100809.66;;;21.73;30.59
61618;BME280;47518;51.776;9.370;2023-06-04T08:46:23;100801.63;;;21.83;29.15
61618;BME280;47518;51.776;9.370;2023-06-04T08:48:49;100808.84;;;21.96;28.44
61618;BME280;47518;51.776;9.370;2023-06-04T08:51:15;100797.44;;;22.04;27.15
61618;BME280;47518;51.776;9.370;2023-06-04T08:53:47;100808.88;;;22.07;28.13
61618;BME280;47518;51.776;9.370;2023-06-04T08:56:16;100813.34;;;22.08;28.24
61618;BME280;47518;51.776;9.370;2023-06-04T08:58:43;100803.47;;;22.36;28.64
61618;BME280;47518;51.776;9.370;2023-06-04T09:01:09;100808.38;;;22.46;27.86
61618;BME280;47518;51.776;9.370;2023-06-04T09:03:36;100805.59;;;22.46;28.83
61618;BME280;47518;51.776;9.370;2023-06-04T09:06:05;100802.25;;;22.43;28.10
61618;BME280;47518;51.776;9.370;2023-06-04T09:08:31;100811.88;;;22.53;26.48
61618;BME280;47518;51.776;9.370;2023-06-04T09:11:00;100817.94;;;22.26;27.42
61618;BME280;47518;51.776;9.370;2023-06-04T09:13:28;100812.50;;;22.31;27.31
61618;BME280;47518;51.776;9.370;2023-06-04T09:16:04;100809.38;;;22.28;28.16
61618;BME280;47518;51.776;9.370;2023-06-04T09:18:31;100812.09;;;22.63;28.18
61618;BME280;47518;51.776;9.370;2023-06-04T09:21:02;100808.59;;;22.67;27.27
61618;BME280;47518;51.776;9.370;2023-06-04T09:23:27;100813.66;;;22.70;26.33
61618;BME280;47518;51.776;9.370;2023-06-04T09:25:53;100811.22;;;22.86;25.80
61618;BME280;47518;51.776;9.370;2023-06-04T09:28:20;100808.22;;;22.76;26.04
61618;BME280;47518;51.776;9.370;2023-06-04T09:30:53;100813.88;;;22.69;27.63
61618;BME280;47518;51.776;9.370;2023-06-04T09:33:19;100811.59;;;22.66;27.50
61618;BME280;47518;51.776;9.370;2023-06-04T09:35:54;100813.16;;;22.74;26.23
61618;BME280;47518;51.776;9.370;2023-06-04T09:38:20;100820.47;;;22.80;25.31
61618;BME280;47518;51.776;9.370;2023-06-04T09:40:45;100811.09;;;22.81;23.83
61618;BME280;47518;51.776;9.370;2023-06-04T09:43:21;100811.22;;;22.74;24.74
61618;BME280;47518;51.776;9.370;2023-06-04T09:45:46;100811.66;;;23.06;24.45
61618;BME280;47518;51.776;9.370;2023-06-04T09:48:19;100807.78;;;23.07;23.70
61618;BME280;47518;51.776;9.370;2023-06-04T09:50:45;100820.09;;;22.99;24.04
61618;BME280;47518;51.776;9.370;2023-06-04T09:53:20;100805.16;;;23.29;23.72
61618;BME280;47518;51.776;9.370;2023-06-04T09:55:58;100806.06;;;23.18;22.59
61618;BME280;47518;51.776;9.370;2023-06-04T09:58:26;100800.22;;;22.91;24.09
61618;BME280;47518;51.776;9.370;2023-06-04T10:00:53;100811.91;;;23.05;24.11
61618;BME280;47518;51.776;9.370;2023-06-04T10:03:20;100810.66;;;23.12;24.62
61618;BME280;47518;51.776;9.370;2023-06-04T10:05:49;100806.97;;;23.23;23.87
61618;BME280;47518;51.776;9.370;2023-06-04T10:08:17;100798.47;;;23.13;27.87
61618;BME280;47518;51.776;9.370;2023-06-04T10:10:44;100799.06;;;23.15;23.98
61618;BME280;47518;51.776;9.370;2023-06-04T10:13:17;100802.25;;;23.07;24.59
61618;BME280;47518;51.776;9.370;2023-06-04T10:15:43;100799.06;;;23.15;24.85
61618;BME280;47518;51.776;9.370;2023-06-04T10:18:09;100800.69;;;22.99;24.40
61618;BME280;47518;51.776;9.370;2023-06-04T10:20:35;100790.69;;;22.98;25.97
61618;BME280;47518;51.776;9.370;2023-06-04T10:23:01;100792.31;;;23.11;26.58
61618;BME280;47518;51.776;9.370;2023-06-04T10:25:28;100792.66;;;22.86;24.79
61618;BME280;47518;51.776;9.370;2023-06-04T10:27:57;100796.31;;;23.04;25.58
61618;BME280;47518;51.776;9.370;2023-06-04T10:30:26;100799.19;;;23.37;25.58
61618;BME280;47518;51.776;9.370;2023-06-04T10:32:52;100796.91;;;23.34;25.58
61618;BME280;47518;51.776;9.370;2023-06-04T10:35:29;100802.53;;;23.51;24.83
61618;BME280;47518;51.776;9.370;2023-06-04T10:38:12;100788.09;;;23.66;24.72
61618;BME280;47518;51.776;9.370;2023-06-04T10:40:39;100788.25;;;23.93;24.55
61618;BME280;47518;51.776;9.370;2023-06-04T10:45:44;100787.72;;;24.12;25.38
61618;BME280;47518;51.776;9.370;2023-06-04T10:48:11;100794.69;;;24.49;24.36
61618;BME280;47518;51.776;9.370;2023-06-04T10:50:52;100791.22;;;24.80;23.07
61618;BME280;47518;51.776;9.370;2023-06-04T10:53:18;100804.75;;;24.77;23.06
61618;BME280;47518;51.776;9.370;2023-06-04T10:55:54;100790.97;;;25.04;23.40
61618;BME280;47518;51.776;9.370;2023-06-04T10:58:19;100786.13;;;25.75;21.55
61618;BME280;47518;51.776;9.370;2023-06-04T11:00:49;100785.72;;;26.88;21.08
61618;BME280;47518;51.776;9.370;2023-06-04T11:03:15;100785.69;;;26.78;20.94
61618;BME280;47518;51.776;9.370;2023-06-04T11:05:43;100783.47;;;26.80;21.26
61618;BME280;47518;51.776;9.370;2023-06-04T11:08:09;100779.31;;;26.35;21.59
61618;BME280;47518;51.776;9.370;2023-06-04T11:10:38;100780.03;;;25.78;21.38
61618;BME280;47518;51.776;9.370;2023-06-04T11:13:04;100781.69;;;25.79;20.98
61618;BME280;47518;51.776;9.370;2023-06-04T11:15:46;100778.41;;;25.55;21.58
61618;BME280;47518;51.776;9.370;2023-06-04T11:18:18;100775.84;;;25.80;21.32
61618;BME280;47518;51.776;9.370;2023-06-04T11:20:46;100786.19;;;25.53;22.26
61618;BME280;47518;51.776;9.370;2023-06-04T11:23:13;100786.66;;;25.72;21.75
61618;BME280;47518;51.776;9.370;2023-06-04T11:25:38;100784.22;;;26.17;21.21
61618;BME280;47518;51.776;9.370;2023-06-04T11:28:04;100772.75;;;26.14;21.12
61618;BME280;47518;51.776;9.370;2023-06-04T11:30:32;100774.66;;;27.08;20.37
61618;BME280;47518;51.776;9.370;2023-06-04T11:33:05;100778.66;;;27.88;18.83
61618;BME280;47518;51.776;9.370;2023-06-04T11:35:39;100757.53;;;28.72;20.30
61618;BME280;47518;51.776;9.370;2023-06-04T11:38:05;100759.84;;;29.15;17.94
61618;BME280;47518;51.776;9.370;2023-06-04T11:40:30;100768.28;;;27.43;19.90
61618;BME280;47518;51.776;9.370;2023-06-04T11:42:56;100771.38;;;27.42;19.94
61618;BME280;47518;51.776;9.370;2023-06-04T11:45:24;100765.66;;;26.96;19.87
61618;BME280;47518;51.776;9.370;2023-06-04T11:47:52;100768.09;;;26.25;21.48
61618;BME280;47518;51.776;9.370;2023-06-04T11:50:18;100762.31;;;25.62;22.06
61618;BME280;47518;51.776;9.370;2023-06-04T11:52:45;100763.19;;;25.09;22.89
61618;BME280;47518;51.776;9.370;2023-06-04T11:55:11;100769.66;;;25.14;22.94
61618;BME280;47518;51.776;9.370;2023-06-04T11:57:50;100769.09;;;24.90;22.26
61618;BME280;47518;51.776;9.370;2023-06-04T12:00:16;100767.84;;;24.81;23.40
61618;BME280;47518;51.776;9.370;2023-06-04T12:03:00;100767.97;;;24.48;23.10
61618;BME280;47518;51.776;9.370;2023-06-04T12:05:30;100759.75;;;24.36;22.96
61618;BME280;47518;51.776;9.370;2023-06-04T12:08:12;100757.31;;;24.39;24.36
61618;BME280;47518;51.776;9.370;2023-06-04T12:10:39;100748.78;;;24.46;23.21
61618;BME280;47518;51.776;9.370;2023-06-04T12:13:05;100746.97;;;24.35;23.32
61618;BME280;47518;51.776;9.370;2023-06-04T12:15:30;100747.38;;;24.27;23.19
61618;BME280;47518;51.776;9.370;2023-06-04T12:17:56;100760.28;;;24.33;24.28
61618;BME280;47518;51.776;9.370;2023-06-04T12:20:38;100748.53;;;24.48;22.93
61618;BME280;47518;51.776;9.370;2023-06-04T12:23:04;100745.09;;;24.40;23.53
61618;BME280;47518;51.776;9.370;2023-06-04T12:25:32;100754.22;;;24.36;23.06
61618;BME280;47518;51.776;9.370;2023-06-04T12:28:00;100744.19;;;24.35;23.12
61618;BME280;47518;51.776;9.370;2023-06-04T12:30:42;100753.69;;;24.39;24.00
61618;BME280;47518;51.776;9.370;2023-06-04T12:33:07;100747.16;;;24.50;22.90
61618;BME280;47518;51.776;9.370;2023-06-04T12:35:34;100751.81;;;24.28;22.96
61618;BME280;47518;51.776;9.370;2023-06-04T12:37:59;100748.69;;;24.41;23.15
61618;BME280;47518;51.776;9.370;2023-06-04T12:40:25;100758.34;;;24.16;23.26
61618;BME280;47518;51.776;9.370;2023-06-04T12:42:50;100757.97;;;24.30;23.24
61618;BME280;47518;51.776;9.370;2023-06-04T12:45:19;100762.88;;;24.23;23.16
61618;BME280;47518;51.776;9.370;2023-06-04T12:47:44;100764.09;;;24.10;22.43
61618;BME280;47518;51.776;9.370;2023-06-04T12:50:11;100761.63;;;24.13;24.45
61618;BME280;47518;51.776;9.370;2023-06-04T12:52:37;100750.63;;;24.02;23.19
61618;BME280;47518;51.776;9.370;2023-06-04T12:55:02;100763.63;;;24.18;22.88
61618;BME280;47518;51.776;9.370;2023-06-04T12:57:28;100757.44;;;24.11;22.78
61618;BME280;47518;51.776;9.370;2023-06-04T12:59:53;100755.38;;;24.23;22.87
61618;BME280;47518;51.776;9.370;2023-06-04T13:02:21;100756.41;;;24.17;22.41
61618;BME280;47518;51.776;9.370;2023-06-04T13:04:49;100752.63;;;24.23;23.27
61618;BME280;47518;51.776;9.370;2023-06-04T13:07:18;100741.75;;;24.22;23.16
61618;BME280;47518;51.776;9.370;2023-06-04T13:09:43;100746.13;;;24.34;23.34
61618;BME280;47518;51.776;9.370;2023-06-04T13:12:08;100741.44;;;24.57;23.93